createdAt,value
2023-04-26T00:04:51.527Z,3.60
2023-04-26T00:09:54.438Z,3.00
2023-04-26T00:14:56.951Z,3.00
2023-04-26T00:19:59.441Z,3.17
2023-04-26T00:25:02.192Z,3.47
2023-04-26T00:30:05.334Z,3.28
2023-04-26T00:35:08.266Z,3.28
2023-04-26T00:40:11.478Z,2.50
2023-04-26T00:45:14.038Z,3.47
2023-04-26T00:50:16.700Z,2.72
2023-04-26T00:55:23.438Z,2.83
2023-04-26T01:00:26.083Z,2.33
2023-04-26T01:05:28.740Z,2.97
2023-04-26T01:10:33.619Z,2.63
2023-04-26T01:15:36.769Z,3.43
2023-04-26T01:20:40.037Z,2.40
2023-04-26T01:25:42.487Z,2.67
2023-04-26T01:30:45.092Z,2.53
2023-04-26T01:35:47.469Z,3.17
2023-04-26T01:40:50.152Z,2.22
2023-04-26T01:45:52.689Z,2.40
2023-04-26T01:51:07.624Z,2.63
2023-04-26T01:56:10.319Z,1.87
2023-04-26T02:01:13.311Z,2.43
2023-04-26T02:06:15.869Z,2.50
2023-04-26T02:11:18.312Z,2.50
2023-04-26T02:16:21.500Z,2.37
2023-04-26T02:21:24.264Z,2.10
2023-04-26T02:26:27.527Z,2.23
2023-04-26T02:31:30.770Z,2.00
2023-04-26T02:36:33.551Z,2.42
2023-04-26T02:41:36.049Z,2.47
2023-04-26T02:46:38.772Z,1.77
2023-04-26T02:51:41.601Z,2.20
2023-04-26T02:56:44.265Z,1.67
2023-04-26T03:01:47.112Z,2.10
2023-04-26T03:06:49.738Z,2.53
2023-04-26T03:11:52.606Z,1.83
2023-04-26T03:16:56.908Z,1.93
2023-04-26T03:22:00.566Z,2.10
2023-04-26T03:27:03.235Z,2.30
2023-04-26T03:32:06.465Z,2.00
2023-04-26T03:37:09.515Z,2.13
2023-04-26T03:42:13.893Z,1.80
2023-04-26T03:47:16.724Z,2.13
2023-04-26T03:52:19.899Z,2.27
2023-04-26T03:57:23.240Z,2.05
2023-04-26T04:02:26.534Z,2.20
2023-04-26T04:07:29.470Z,2.20
2023-04-26T04:12:32.172Z,1.80
2023-04-26T04:17:35.995Z,1.87
2023-04-26T04:22:40.439Z,2.03
2023-04-26T04:27:43.660Z,1.97
2023-04-26T04:32:47.060Z,2.20
2023-04-26T04:37:51.680Z,1.60
2023-04-26T04:42:55.647Z,2.30
2023-04-26T04:48:01.824Z,1.57
2023-04-26T04:53:04.557Z,1.60
2023-04-26T04:58:07.419Z,2.07
2023-04-26T05:03:10.788Z,1.97
2023-04-26T05:08:13.537Z,1.83
2023-04-26T05:13:16.204Z,1.20
2023-04-26T05:18:20.076Z,1.40
2023-04-26T05:23:22.621Z,1.30
2023-04-26T05:28:25.257Z,2.37
2023-04-26T05:33:45.422Z,2.07
2023-04-26T05:39:05.765Z,1.40
2023-04-26T05:44:08.411Z,1.20
2023-04-26T05:49:11.295Z,0.93
2023-04-26T05:54:14.175Z,1.07
2023-04-26T05:59:16.620Z,1.03
2023-04-26T06:04:20.193Z,1.70
2023-04-26T06:09:36.018Z,0.90
2023-04-26T06:14:39.230Z,1.27
2023-04-26T06:19:46.401Z,0.90
2023-04-26T06:24:49.743Z,1.10
2023-04-26T06:29:52.581Z,1.10
2023-04-26T06:34:56.507Z,1.33
2023-04-26T06:40:02.276Z,1.20
2023-04-26T06:45:05.203Z,0.60
2023-04-26T06:50:10.397Z,1.00
2023-04-26T06:55:13.316Z,0.60
2023-04-26T07:00:16.217Z,1.93
2023-04-26T07:05:19.326Z,1.00
2023-04-26T07:10:22.141Z,1.03
2023-04-26T07:15:24.826Z,0.83
2023-04-26T07:20:27.326Z,0.23
2023-04-26T07:25:29.820Z,0.67
2023-04-26T07:30:32.646Z,1.03
2023-04-26T07:35:38.180Z,0.77
2023-04-26T07:40:41.385Z,1.00
2023-04-26T07:45:43.962Z,1.43
2023-04-26T07:50:46.673Z,1.20
2023-04-26T07:55:51.455Z,1.23
2023-04-26T08:00:55.142Z,0.90
2023-04-26T08:05:59.201Z,1.23
2023-04-26T08:11:01.947Z,1.30
2023-04-26T08:16:04.767Z,1.60
2023-04-26T08:21:07.258Z,1.40
2023-04-26T08:26:09.999Z,1.10
2023-04-26T08:31:12.650Z,0.67
2023-04-26T08:36:15.450Z,7.53
2023-04-26T08:41:22.783Z,0.90
2023-04-26T08:46:28.966Z,0.50
2023-04-26T08:51:33.506Z,3.70
2023-04-26T08:56:36.372Z,2.23
2023-04-26T09:01:44.636Z,6.43
2023-04-26T09:06:49.874Z,2.33
2023-04-26T09:12:03.363Z,0.93
2023-04-26T09:17:06.316Z,0.67
2023-04-26T09:22:09.423Z,1.37
2023-04-26T09:27:12.484Z,1.20
2023-04-26T09:32:15.055Z,1.63
2023-04-26T09:37:17.676Z,1.73
2023-04-26T09:42:20.392Z,0.83
2023-04-26T09:47:23.210Z,1.10
2023-04-26T09:52:26.073Z,1.17
2023-04-26T09:57:28.567Z,0.70
2023-04-26T10:02:31.809Z,1.53
2023-04-26T10:07:34.684Z,1.20
2023-04-26T10:12:37.590Z,0.83
2023-04-26T10:17:40.965Z,1.13
2023-04-26T10:22:55.111Z,1.43
2023-04-26T10:27:57.622Z,1.10
2023-04-26T10:33:00.504Z,0.83
2023-04-26T10:38:03.356Z,1.87
2023-04-26T10:43:19.651Z,1.67
2023-04-26T10:48:28.707Z,1.20
2023-04-26T10:53:33.541Z,1.20
2023-04-26T10:58:36.066Z,1.37
2023-04-26T11:03:39.157Z,0.77
2023-04-26T11:08:43.304Z,0.90
2023-04-26T11:13:47.191Z,0.97
2023-04-26T11:18:49.861Z,1.40
2023-04-26T11:23:56.086Z,0.47
2023-04-26T11:28:58.605Z,2.40
2023-04-26T11:34:05.292Z,1.33
2023-04-26T11:39:07.864Z,1.27
2023-04-26T11:44:12.727Z,1.40
2023-04-26T11:49:17.272Z,2.80
2023-04-26T11:54:34.132Z,2.03
2023-04-26T11:59:36.657Z,0.90
2023-04-26T12:04:40.984Z,1.17
2023-04-26T12:09:43.871Z,1.40
2023-04-26T12:14:47.810Z,0.77
2023-04-26T12:19:50.423Z,1.20
2023-04-26T12:25:05.605Z,1.33
2023-04-26T12:30:08.855Z,1.17
2023-04-26T12:35:11.495Z,1.63
2023-04-26T12:40:14.171Z,1.50
2023-04-26T12:45:18.748Z,0.87
2023-04-26T12:50:22.004Z,2.00
2023-04-26T12:55:25.182Z,2.30
2023-04-26T13:00:27.905Z,0.80
2023-04-26T13:05:32.550Z,0.43
2023-04-26T13:10:35.115Z,1.07
2023-04-26T13:15:37.708Z,1.10
2023-04-26T13:20:40.139Z,0.80
2023-04-26T13:25:42.733Z,1.17
2023-04-26T13:30:45.307Z,1.67
2023-04-26T13:35:47.808Z,3.07
2023-04-26T13:40:50.345Z,1.20
2023-04-26T13:45:52.707Z,0.83
2023-04-26T13:50:56.386Z,1.33
2023-04-26T13:55:59.014Z,2.13
2023-04-26T14:01:02.372Z,1.20
2023-04-26T14:06:05.324Z,1.37
2023-04-26T14:11:08.345Z,0.80
2023-04-26T14:16:10.994Z,1.00
2023-04-26T14:21:13.511Z,1.20
2023-04-26T14:26:16.709Z,1.40
2023-04-26T14:31:19.863Z,0.80
2023-04-26T14:36:22.721Z,1.17
2023-04-26T14:41:25.190Z,1.27
2023-04-26T14:46:27.693Z,1.73
2023-04-26T14:51:30.166Z,1.00
2023-04-26T14:56:36.051Z,1.30
2023-04-26T15:01:38.661Z,0.60
2023-04-26T15:06:41.287Z,1.17
2023-04-26T15:11:43.871Z,1.70
2023-04-26T15:16:46.556Z,0.60
2023-04-26T15:21:49.438Z,1.23
2023-04-26T15:26:52.037Z,1.17
2023-04-26T15:31:54.659Z,1.20
2023-04-26T15:37:00.279Z,0.90
2023-04-26T15:42:04.250Z,1.88
2023-04-26T15:47:07.233Z,1.65
2023-04-26T15:52:09.681Z,1.70
2023-04-26T15:57:12.420Z,1.23
2023-04-26T16:02:14.947Z,1.63
2023-04-26T16:07:18.387Z,1.30
2023-04-26T16:12:21.276Z,1.65
2023-04-26T16:17:23.750Z,1.27
2023-04-26T16:22:26.231Z,1.30
2023-04-26T16:27:28.824Z,1.60
2023-04-26T16:32:31.494Z,2.97
2023-04-26T16:37:34.001Z,2.47
2023-04-26T16:42:36.549Z,2.00
2023-04-26T16:47:39.167Z,2.77
2023-04-26T16:52:41.598Z,1.77
2023-04-26T16:57:44.074Z,1.80
2023-04-26T17:02:49.725Z,1.87
2023-04-26T17:07:52.202Z,2.10
2023-04-26T17:12:54.717Z,2.07
2023-04-26T17:17:57.563Z,3.00
2023-04-26T17:23:01.306Z,1.67
2023-04-26T17:28:03.938Z,1.43
2023-04-26T17:33:07.730Z,1.50
2023-04-26T17:38:10.602Z,1.13
2023-04-26T17:43:13.066Z,2.50
2023-04-26T17:48:17.043Z,2.50
2023-04-26T17:53:19.745Z,1.60
2023-04-26T17:58:22.320Z,1.47
2023-04-26T18:03:25.194Z,2.10
2023-04-26T18:08:27.985Z,1.23
2023-04-26T18:13:30.760Z,2.03
2023-04-26T18:18:33.366Z,2.43
2023-04-26T18:23:36.100Z,1.97
2023-04-26T18:28:38.652Z,2.00
2023-04-26T18:33:41.030Z,3.07
2023-04-26T18:38:44.240Z,3.73
2023-04-26T18:43:46.825Z,2.80
2023-04-26T18:48:49.334Z,3.97
2023-04-26T18:53:51.891Z,3.17
2023-04-26T18:58:54.987Z,3.10
2023-04-26T19:03:57.688Z,4.33
2023-04-26T19:09:01.108Z,3.47
2023-04-26T19:14:03.629Z,2.83
2023-04-26T19:19:06.103Z,2.87
2023-04-26T19:24:09.086Z,3.83
2023-04-26T19:29:11.630Z,2.70
2023-04-26T19:34:14.300Z,2.87
2023-04-26T19:39:16.940Z,2.00
2023-04-26T19:44:20.491Z,3.07
2023-04-26T19:49:23.203Z,3.50
2023-04-26T19:54:26.073Z,3.63
2023-04-26T19:59:28.499Z,2.90
2023-04-26T20:04:31.130Z,3.40
2023-04-26T20:09:34.736Z,3.57
2023-04-26T20:14:37.474Z,3.40
2023-04-26T20:19:40.084Z,3.47
2023-04-26T20:24:42.730Z,3.43
2023-04-26T20:29:47.110Z,2.90
2023-04-26T20:34:49.489Z,3.30
2023-04-26T20:39:52.024Z,4.07
2023-04-26T20:44:54.674Z,2.83
2023-04-26T20:49:57.186Z,3.37
2023-04-26T20:54:59.775Z,5.13
2023-04-26T21:00:02.945Z,4.87
2023-04-26T21:05:06.413Z,3.63
2023-04-26T21:10:09.650Z,4.27
2023-04-26T21:15:12.298Z,6.93
2023-04-26T21:20:15.210Z,6.03
2023-04-26T21:25:19.772Z,10.20
2023-04-26T21:30:22.433Z,7.23
2023-04-26T21:35:25.019Z,6.13
2023-04-26T21:40:28.051Z,6.53
2023-04-26T21:45:30.371Z,4.90
2023-04-26T21:50:33.109Z,3.70
2023-04-26T21:55:35.779Z,5.23
2023-04-26T22:00:38.342Z,7.17
2023-04-26T22:05:41.091Z,5.93
2023-04-26T22:10:43.987Z,4.77
2023-04-26T22:15:46.916Z,6.43
2023-04-26T22:20:49.511Z,5.57
2023-04-26T22:25:52.540Z,6.43
2023-04-26T22:30:54.999Z,7.03
2023-04-26T22:35:58.067Z,7.53
2023-04-26T22:41:00.814Z,4.83
2023-04-26T22:46:03.449Z,8.10
2023-04-26T22:51:06.084Z,8.30
2023-04-26T22:56:08.766Z,5.40
2023-04-26T23:01:17.086Z,6.83
2023-04-26T23:06:20.834Z,3.80
2023-04-26T23:11:23.203Z,4.27
2023-04-26T23:16:25.752Z,4.63
2023-04-26T23:21:28.350Z,6.10
2023-04-26T23:26:30.908Z,3.50
2023-04-26T23:31:33.532Z,6.00
2023-04-26T23:36:36.232Z,7.30
2023-04-26T23:41:38.679Z,4.20
2023-04-26T23:46:41.206Z,5.20
2023-04-26T23:51:43.773Z,3.23
2023-04-26T23:56:46.627Z,4.57
